Terminal Aerodrome Forecast
Issued by NWS Wakefield, VA

Home | Current Version | Previous Version | Text Only | Print | Product List | Glossary On
Versions: 1 2 3 4 5 6 7 8 9 10 11 12
000
FTUS41 KAKQ 282340
TAFSBY
TAF
KSBY 282340Z 2900/2924 14006KT P6SM SCT250
     FM290800 00000KT 1SM BR OVC002
     FM291330 16005KT 4SM BR OVC005
     FM291500 17007KT P6SM BKN025
     FM291800 18006KT P6SM BKN040=

USA.gov is the U.S. government's official web portal to all federal, state and local government web resources and services.